createdAt,value
2018-06-29T00:00:10.673Z,18.90
2018-06-29T00:02:39.813Z,18.90
2018-06-29T00:05:09.542Z,18.90
2018-06-29T00:07:38.705Z,18.80
2018-06-29T00:10:07.897Z,18.80
2018-06-29T00:12:37.063Z,18.50
2018-06-29T00:15:06.236Z,18.60
2018-06-29T00:17:35.355Z,18.40
2018-06-29T00:20:04.923Z,18.40
2018-06-29T00:22:34.057Z,18.60
2018-06-29T00:25:03.189Z,18.70
2018-06-29T00:27:32.334Z,18.70
2018-06-29T00:30:01.526Z,18.80
2018-06-29T00:32:30.676Z,18.80
2018-06-29T00:34:59.810Z,18.70
2018-06-29T00:37:28.978Z,18.70
2018-06-29T00:39:58.162Z,18.80
2018-06-29T00:42:27.414Z,18.90
2018-06-29T00:44:56.588Z,18.70
2018-06-29T00:47:25.717Z,18.80
2018-06-29T00:49:54.889Z,18.90
2018-06-29T00:52:24.020Z,18.90
2018-06-29T00:54:53.145Z,18.90
2018-06-29T00:57:23.186Z,18.80
2018-06-29T00:59:52.305Z,18.70
2018-06-29T01:02:21.398Z,18.70
2018-06-29T01:04:50.549Z,18.70
2018-06-29T01:07:19.677Z,18.70
2018-06-29T01:09:48.874Z,18.80
2018-06-29T01:12:18.003Z,18.90
2018-06-29T01:14:47.156Z,18.90
2018-06-29T01:17:16.276Z,18.90
2018-06-29T01:19:45.501Z,19.00
2018-06-29T01:22:14.640Z,19.00
2018-06-29T01:24:43.789Z,18.80
2018-06-29T01:27:12.933Z,18.80
2018-06-29T01:29:42.069Z,18.90
2018-06-29T01:32:11.282Z,18.80
2018-06-29T01:34:40.428Z,18.90
2018-06-29T01:37:09.560Z,19.00
2018-06-29T01:39:38.734Z,19.00
2018-06-29T01:42:07.881Z,18.80
2018-06-29T01:44:37.078Z,18.90
2018-06-29T01:47:06.253Z,18.90
2018-06-29T01:49:35.401Z,18.90
2018-06-29T01:52:04.607Z,18.90
2018-06-29T01:54:33.796Z,18.80
2018-06-29T01:57:02.946Z,18.70
2018-06-29T01:59:38.834Z,18.60
2018-06-29T02:02:07.907Z,18.70
2018-06-29T02:04:37.038Z,18.80
2018-06-29T02:07:06.186Z,18.90
2018-06-29T02:09:35.333Z,18.90
2018-06-29T02:12:05.304Z,19.00
2018-06-29T02:14:34.413Z,19.00
2018-06-29T02:17:03.590Z,18.90
2018-06-29T02:19:32.762Z,18.90
2018-06-29T02:24:30.575Z,18.70
2018-06-29T02:26:59.771Z,18.80
2018-06-29T02:29:28.930Z,18.80
2018-06-29T02:31:58.130Z,18.80
2018-06-29T02:34:27.266Z,18.70
2018-06-29T02:36:56.533Z,18.80
2018-06-29T02:39:25.646Z,18.80
2018-06-29T02:41:54.896Z,18.80
2018-06-29T02:44:24.105Z,18.90
2018-06-29T02:46:53.303Z,18.80
2018-06-29T02:49:22.433Z,18.90
2018-06-29T02:51:51.613Z,18.70
2018-06-29T02:54:20.757Z,18.70
2018-06-29T02:56:49.945Z,18.70
2018-06-29T02:59:19.065Z,18.80
2018-06-29T03:01:48.217Z,18.80
2018-06-29T03:04:17.377Z,18.90
2018-06-29T03:06:46.538Z,18.80
2018-06-29T03:09:15.810Z,18.90
2018-06-29T03:11:44.902Z,18.90
2018-06-29T03:14:14.050Z,19.00
2018-06-29T03:16:43.157Z,19.00
2018-06-29T03:19:12.407Z,19.10
2018-06-29T03:21:41.635Z,19.10
2018-06-29T03:24:10.800Z,19.10
2018-06-29T03:26:39.956Z,19.10
2018-06-29T03:29:09.096Z,19.10
2018-06-29T03:31:38.230Z,19.10
2018-06-29T03:34:07.376Z,19.00
2018-06-29T03:36:36.519Z,19.00
2018-06-29T03:39:07.724Z,19.10
2018-06-29T03:41:36.887Z,19.10
2018-06-29T03:44:06.063Z,19.10
2018-06-29T03:49:04.301Z,19.00
2018-06-29T03:51:33.436Z,19.00
2018-06-29T03:54:02.587Z,19.10
2018-06-29T03:56:31.709Z,19.10
2018-06-29T03:59:00.847Z,19.10
2018-06-29T04:01:30.050Z,19.10
2018-06-29T04:03:59.276Z,19.10
2018-06-29T04:06:28.457Z,19.10
2018-06-29T04:08:57.569Z,19.10
2018-06-29T04:11:26.765Z,19.10
2018-06-29T04:13:55.971Z,19.10
2018-06-29T04:16:25.114Z,19.00
2018-06-29T04:18:54.261Z,19.10
2018-06-29T04:21:24.269Z,19.10
2018-06-29T04:23:53.441Z,19.10
2018-06-29T04:26:22.617Z,19.10
2018-06-29T04:28:51.820Z,19.10
2018-06-29T04:31:20.964Z,19.10
2018-06-29T04:33:50.134Z,19.00
2018-06-29T04:36:19.269Z,19.10
2018-06-29T04:38:48.358Z,18.90
2018-06-29T04:41:17.566Z,19.00
2018-06-29T04:43:46.753Z,19.10
2018-06-29T04:46:15.915Z,19.00
2018-06-29T04:48:45.126Z,19.00
2018-06-29T04:51:14.238Z,19.00
2018-06-29T04:53:43.522Z,19.10
2018-06-29T04:56:12.637Z,19.20
2018-06-29T04:58:41.799Z,19.20
2018-06-29T05:01:10.942Z,19.20
2018-06-29T05:03:40.072Z,19.20
2018-06-29T05:06:13.285Z,19.10
2018-06-29T05:08:42.502Z,19.20
2018-06-29T05:11:11.733Z,19.10
2018-06-29T05:13:40.849Z,19.20
2018-06-29T05:16:10.028Z,19.30
2018-06-29T05:18:39.270Z,19.30
2018-06-29T05:21:08.421Z,19.30
2018-06-29T05:23:37.530Z,19.30
2018-06-29T05:26:06.710Z,19.40
2018-06-29T05:28:35.904Z,19.50
2018-06-29T05:31:05.086Z,19.40
2018-06-29T05:33:34.211Z,19.60
2018-06-29T05:36:03.352Z,19.70
2018-06-29T05:38:32.543Z,19.80
2018-06-29T05:41:01.741Z,20.00
2018-06-29T05:43:30.923Z,20.10
2018-06-29T05:46:00.047Z,20.10
2018-06-29T05:48:29.188Z,20.10
2018-06-29T05:50:58.350Z,20.20
2018-06-29T05:53:27.541Z,20.10
2018-06-29T05:55:56.695Z,20.00
2018-06-29T05:58:25.936Z,19.90
2018-06-29T06:00:55.118Z,19.90
2018-06-29T06:03:24.321Z,20.00
2018-06-29T06:05:53.487Z,20.00
2018-06-29T06:08:22.683Z,20.00
2018-06-29T06:10:52.125Z,19.90
2018-06-29T06:13:21.310Z,20.00
2018-06-29T06:15:50.485Z,20.00
2018-06-29T06:18:19.638Z,19.90
2018-06-29T06:20:48.785Z,19.80
2018-06-29T06:23:19.462Z,19.80
2018-06-29T06:25:49.396Z,19.80
2018-06-29T06:28:19.037Z,19.90
2018-06-29T06:30:48.531Z,19.90
2018-06-29T06:33:17.984Z,19.90
2018-06-29T06:35:47.176Z,20.00
2018-06-29T06:38:16.305Z,20.00
2018-06-29T06:43:14.143Z,20.00
2018-06-29T06:45:43.242Z,20.10
2018-06-29T06:48:12.428Z,20.10
2018-06-29T06:50:41.557Z,20.30
2018-06-29T06:53:10.694Z,20.80
2018-06-29T06:55:39.893Z,21.50
2018-06-29T06:58:09.052Z,21.90
2018-06-29T07:00:38.234Z,22.20
2018-06-29T07:03:07.526Z,23.30
2018-06-29T07:05:36.738Z,24.10
2018-06-29T07:08:06.055Z,24.30
2018-06-29T07:10:35.235Z,24.10
2018-06-29T07:13:04.474Z,23.80
2018-06-29T07:15:33.574Z,23.30
2018-06-29T07:18:02.730Z,22.90
2018-06-29T07:20:31.941Z,22.80
2018-06-29T07:23:01.098Z,23.20
2018-06-29T07:25:30.281Z,23.00
2018-06-29T07:27:59.545Z,22.60
2018-06-29T07:30:28.662Z,22.40
2018-06-29T07:32:57.905Z,23.00
2018-06-29T07:35:27.111Z,23.80
2018-06-29T07:37:56.646Z,23.50
2018-06-29T07:40:25.867Z,23.30
2018-06-29T07:42:55.022Z,22.80
2018-06-29T07:45:24.155Z,22.40
2018-06-29T07:47:53.325Z,22.00
2018-06-29T07:50:22.556Z,21.80
2018-06-29T07:52:51.702Z,21.60
2018-06-29T07:55:20.854Z,21.50
2018-06-29T07:57:50.007Z,21.40
2018-06-29T08:00:19.731Z,21.30
2018-06-29T08:05:17.678Z,21.40
2018-06-29T08:07:46.802Z,21.60
2018-06-29T08:10:15.985Z,21.80
2018-06-29T08:12:45.134Z,21.90
2018-06-29T08:15:14.281Z,22.00
2018-06-29T08:17:43.386Z,21.90
2018-06-29T08:20:12.573Z,21.70
2018-06-29T08:22:41.725Z,21.60
2018-06-29T08:25:14.690Z,21.60
2018-06-29T08:27:44.190Z,21.60
2018-06-29T08:30:14.285Z,21.70
2018-06-29T08:32:43.481Z,21.70
2018-06-29T08:35:12.650Z,21.70
2018-06-29T08:37:41.906Z,21.60
2018-06-29T08:40:11.332Z,21.60
2018-06-29T08:42:40.559Z,21.60
2018-06-29T08:45:10.183Z,21.60
2018-06-29T08:47:39.408Z,21.70
2018-06-29T08:50:08.608Z,21.90
2018-06-29T08:52:37.807Z,22.00
2018-06-29T08:55:07.181Z,22.00
2018-06-29T08:57:36.430Z,21.90
2018-06-29T09:00:06.835Z,21.80
2018-06-29T09:02:36.082Z,21.90
2018-06-29T09:05:05.674Z,21.80
2018-06-29T09:07:35.031Z,21.80
2018-06-29T09:10:04.707Z,21.70
2018-06-29T09:12:33.863Z,21.70
2018-06-29T09:15:03.174Z,21.80
2018-06-29T09:17:32.294Z,21.80
2018-06-29T09:20:01.539Z,21.90
2018-06-29T09:22:30.759Z,22.10
2018-06-29T09:25:01.126Z,22.10
2018-06-29T09:27:31.552Z,22.20
2018-06-29T09:30:00.897Z,22.40
2018-06-29T09:32:30.266Z,22.70
2018-06-29T09:34:59.444Z,23.10
2018-06-29T09:37:28.720Z,23.30
2018-06-29T09:39:57.840Z,23.50
2018-06-29T09:42:27.692Z,23.60
2018-06-29T09:44:56.848Z,23.70
2018-06-29T09:47:26.066Z,23.50
2018-06-29T09:49:55.216Z,23.30
2018-06-29T09:52:24.416Z,23.10
2018-06-29T09:54:53.634Z,23.10
2018-06-29T09:57:22.794Z,23.10
2018-06-29T09:59:52.010Z,23.00
2018-06-29T10:02:21.798Z,23.00
2018-06-29T10:04:51.990Z,22.80
2018-06-29T10:07:21.214Z,22.80
2018-06-29T10:09:50.366Z,22.70
2018-06-29T10:12:19.521Z,22.80
2018-06-29T10:14:49.259Z,22.90
2018-06-29T10:17:18.418Z,23.00
2018-06-29T10:19:47.591Z,23.00
2018-06-29T10:22:17.371Z,23.20
2018-06-29T10:27:15.222Z,23.50
2018-06-29T10:32:14.012Z,24.20
2018-06-29T10:34:43.425Z,24.50
2018-06-29T10:37:12.920Z,24.50
2018-06-29T10:39:42.107Z,24.60
2018-06-29T10:42:11.223Z,24.80
2018-06-29T10:44:40.448Z,24.80
2018-06-29T10:47:09.565Z,24.70
2018-06-29T10:49:38.741Z,24.80
2018-06-29T10:52:08.016Z,24.70
2018-06-29T10:54:37.217Z,24.60
2018-06-29T11:02:04.913Z,24.50
2018-06-29T11:04:34.330Z,24.70
2018-06-29T11:07:03.459Z,24.80
2018-06-29T11:09:32.689Z,24.80
2018-06-29T11:12:01.900Z,24.80
2018-06-29T11:14:31.091Z,24.80
2018-06-29T11:17:00.236Z,24.90
2018-06-29T11:19:29.458Z,25.10
2018-06-29T11:21:58.629Z,25.10
2018-06-29T11:24:28.419Z,25.20
2018-06-29T11:26:57.701Z,25.20
2018-06-29T11:29:26.976Z,25.20
2018-06-29T11:31:56.189Z,25.30
2018-06-29T11:34:25.597Z,25.30
2018-06-29T11:36:54.844Z,25.30
2018-06-29T11:39:23.977Z,25.20
2018-06-29T11:41:53.231Z,25.30
2018-06-29T11:44:22.394Z,25.30
2018-06-29T11:46:51.549Z,25.40
2018-06-29T11:49:21.442Z,25.50
2018-06-29T11:51:50.646Z,25.70
2018-06-29T11:54:19.896Z,25.70
2018-06-29T11:56:49.093Z,25.60
2018-06-29T11:59:18.244Z,25.70
2018-06-29T12:01:47.402Z,25.80
2018-06-29T12:04:16.595Z,25.80
2018-06-29T12:06:45.829Z,25.90
2018-06-29T12:09:14.996Z,25.80
2018-06-29T12:11:45.082Z,25.90
2018-06-29T12:14:14.326Z,26.00
2018-06-29T12:16:43.619Z,26.10
2018-06-29T12:19:12.822Z,26.30
2018-06-29T12:21:42.069Z,26.10
2018-06-29T12:24:11.429Z,26.00
2018-06-29T12:29:09.341Z,26.10
2018-06-29T12:31:38.638Z,26.00
2018-06-29T12:34:07.806Z,26.10
2018-06-29T12:36:36.953Z,26.20
2018-06-29T12:39:08.025Z,26.30
2018-06-29T12:41:37.239Z,26.40
2018-06-29T12:44:06.454Z,26.50
2018-06-29T12:46:35.626Z,26.60
2018-06-29T12:49:05.063Z,26.70
2018-06-29T12:51:34.329Z,26.60
2018-06-29T12:54:03.461Z,26.80
2018-06-29T12:56:32.629Z,27.00
2018-06-29T12:59:01.874Z,27.10
2018-06-29T13:01:31.034Z,27.00
2018-06-29T13:04:00.193Z,26.80
2018-06-29T13:06:29.486Z,26.80
2018-06-29T13:08:58.716Z,26.70
2018-06-29T13:11:28.370Z,26.60
2018-06-29T13:13:57.497Z,26.60
2018-06-29T13:16:26.662Z,26.70
2018-06-29T13:18:55.817Z,26.80
2018-06-29T13:21:25.925Z,26.80
2018-06-29T13:23:55.152Z,26.90
2018-06-29T13:26:24.553Z,27.00
2018-06-29T13:28:53.730Z,27.00
2018-06-29T13:31:22.868Z,26.90
2018-06-29T13:33:52.035Z,26.90
2018-06-29T13:36:21.112Z,26.70
2018-06-29T13:38:50.291Z,26.70
2018-06-29T13:41:19.446Z,26.70
2018-06-29T13:43:48.616Z,26.70
2018-06-29T13:46:17.721Z,26.70
2018-06-29T13:48:46.854Z,26.70
2018-06-29T13:51:16.076Z,26.70
2018-06-29T13:53:45.221Z,26.70
2018-06-29T13:56:14.443Z,26.80
2018-06-29T13:58:43.553Z,27.00
2018-06-29T14:01:12.706Z,27.10
2018-06-29T14:03:41.859Z,27.20
2018-06-29T14:06:10.977Z,27.30
2018-06-29T14:08:40.186Z,27.30
2018-06-29T14:11:09.389Z,27.30
2018-06-29T14:13:38.548Z,27.30
2018-06-29T14:16:07.696Z,27.30
2018-06-29T14:18:36.883Z,27.30
2018-06-29T14:21:06.140Z,27.20
2018-06-29T14:23:35.346Z,27.10
2018-06-29T14:26:04.519Z,27.00
2018-06-29T14:28:33.701Z,27.00
2018-06-29T14:31:02.859Z,26.90
2018-06-29T14:33:32.087Z,26.80
2018-06-29T14:36:01.283Z,26.90
2018-06-29T14:38:30.482Z,27.10
2018-06-29T14:40:59.647Z,27.20
2018-06-29T14:43:28.882Z,27.20
2018-06-29T14:45:58.056Z,27.10
2018-06-29T14:48:27.215Z,27.20
2018-06-29T14:50:56.482Z,27.00
2018-06-29T14:53:25.652Z,26.90
2018-06-29T14:55:54.870Z,26.80
2018-06-29T14:58:24.013Z,26.80
2018-06-29T15:00:53.165Z,26.80
2018-06-29T15:03:23.881Z,27.00
2018-06-29T15:05:53.405Z,27.00
2018-06-29T15:08:22.531Z,27.00
2018-06-29T15:10:51.745Z,27.20
2018-06-29T15:13:20.873Z,27.30
2018-06-29T15:15:50.147Z,27.30
2018-06-29T15:18:19.253Z,27.20
2018-06-29T15:20:48.522Z,27.10
2018-06-29T15:23:17.856Z,27.10
2018-06-29T15:25:47.042Z,26.90
2018-06-29T15:28:16.254Z,26.80
2018-06-29T15:33:14.348Z,26.70
2018-06-29T15:35:43.503Z,26.60
2018-06-29T15:38:12.726Z,26.60
2018-06-29T15:40:41.890Z,26.70
2018-06-29T15:43:12.171Z,26.90
2018-06-29T15:45:41.418Z,27.10
2018-06-29T15:48:10.577Z,27.20
2018-06-29T15:50:39.706Z,27.20
2018-06-29T15:53:08.864Z,27.20
2018-06-29T15:55:38.081Z,27.20
2018-06-29T15:58:07.439Z,27.20
2018-06-29T16:00:36.621Z,27.10
2018-06-29T16:03:06.096Z,27.00
2018-06-29T16:05:35.388Z,26.90
2018-06-29T16:08:04.787Z,26.80
2018-06-29T16:10:33.910Z,26.70
2018-06-29T16:13:03.074Z,26.50
2018-06-29T16:15:32.219Z,26.40
2018-06-29T16:18:01.382Z,26.40
2018-06-29T16:20:30.564Z,26.40
2018-06-29T16:23:00.045Z,26.40
2018-06-29T16:25:29.317Z,26.50
2018-06-29T16:27:58.488Z,26.50
2018-06-29T16:30:27.702Z,26.60
2018-06-29T16:32:56.913Z,26.60
2018-06-29T16:35:26.037Z,26.50
2018-06-29T16:40:23.958Z,26.50
2018-06-29T16:42:53.118Z,26.60
2018-06-29T16:45:22.287Z,26.60
2018-06-29T16:47:51.529Z,26.60
2018-06-29T16:50:20.721Z,26.50
2018-06-29T16:52:50.009Z,26.50
2018-06-29T16:55:19.428Z,26.50
2018-06-29T16:57:48.634Z,26.40
2018-06-29T17:00:18.056Z,26.40
2018-06-29T17:02:47.247Z,26.40
2018-06-29T17:05:16.393Z,26.40
2018-06-29T17:07:45.534Z,26.50
2018-06-29T17:10:14.764Z,26.50
2018-06-29T17:12:43.969Z,26.50
2018-06-29T17:15:13.137Z,26.40
2018-06-29T17:17:42.433Z,26.40
2018-06-29T17:20:11.596Z,26.40
2018-06-29T17:22:40.930Z,26.40
2018-06-29T17:25:11.097Z,26.40
2018-06-29T17:27:40.566Z,26.40
2018-06-29T17:30:10.994Z,26.40
2018-06-29T17:32:40.173Z,26.30
2018-06-29T17:35:09.364Z,26.30
2018-06-29T17:37:39.270Z,26.20
2018-06-29T17:40:08.478Z,26.20
2018-06-29T17:42:37.690Z,26.20
2018-06-29T17:45:06.967Z,26.20
2018-06-29T17:47:36.210Z,26.20
2018-06-29T17:50:05.420Z,26.20
2018-06-29T17:52:34.673Z,26.10
2018-06-29T17:55:03.928Z,26.10
2018-06-29T17:57:33.157Z,26.20
2018-06-29T18:00:02.380Z,26.10
2018-06-29T18:02:31.555Z,26.10
2018-06-29T18:05:00.700Z,26.00
2018-06-29T18:07:29.957Z,26.10
2018-06-29T18:09:59.168Z,26.10
2018-06-29T18:12:28.299Z,26.00
2018-06-29T18:14:57.522Z,26.00
2018-06-29T18:17:26.846Z,26.00
2018-06-29T18:19:56.053Z,25.90
2018-06-29T18:22:25.263Z,25.80
2018-06-29T18:24:54.533Z,25.90
2018-06-29T18:27:23.846Z,25.90
2018-06-29T18:29:53.129Z,25.90
2018-06-29T18:32:22.300Z,25.90
2018-06-29T18:34:51.585Z,25.80
2018-06-29T18:37:20.864Z,25.80
2018-06-29T18:39:50.062Z,25.70
2018-06-29T18:42:19.759Z,25.70
2018-06-29T18:44:48.939Z,25.70
2018-06-29T18:47:18.236Z,25.60
2018-06-29T18:49:47.710Z,25.60
2018-06-29T18:52:16.938Z,25.60
2018-06-29T18:54:46.392Z,25.60
2018-06-29T18:57:15.781Z,25.50
2018-06-29T18:59:45.150Z,25.50
2018-06-29T19:02:15.110Z,25.50
2018-06-29T19:04:44.409Z,25.40
2018-06-29T19:07:13.570Z,25.40
2018-06-29T19:09:42.747Z,25.40
2018-06-29T19:12:12.094Z,25.40
2018-06-29T19:14:41.362Z,25.30
2018-06-29T19:17:10.612Z,25.20
2018-06-29T19:19:39.984Z,25.20
2018-06-29T19:22:09.279Z,25.10
2018-06-29T19:24:40.231Z,25.00
2018-06-29T19:27:09.511Z,25.00
2018-06-29T19:29:38.731Z,24.90
2018-06-29T19:32:08.116Z,24.90
2018-06-29T19:34:37.295Z,24.80
2018-06-29T19:37:06.552Z,24.70
2018-06-29T19:39:35.760Z,24.60
2018-06-29T19:42:04.946Z,24.60
2018-06-29T19:44:34.159Z,24.50
2018-06-29T19:47:03.403Z,24.40
2018-06-29T19:49:33.005Z,24.40
2018-06-29T19:54:30.924Z,24.30
2018-06-29T19:57:00.109Z,24.20
2018-06-29T19:59:31.797Z,24.20
2018-06-29T20:02:01.038Z,24.10
2018-06-29T20:06:59.221Z,24.00
2018-06-29T20:09:28.453Z,24.00
2018-06-29T20:11:57.620Z,24.00
2018-06-29T20:16:55.545Z,23.90
2018-06-29T20:19:24.735Z,23.80
2018-06-29T20:21:53.895Z,23.80
2018-06-29T20:24:23.041Z,23.80
2018-06-29T20:26:52.218Z,23.70
2018-06-29T20:29:21.353Z,23.70
2018-06-29T20:31:50.626Z,23.60
2018-06-29T20:34:19.929Z,23.60
2018-06-29T20:36:49.226Z,23.60
2018-06-29T20:39:18.599Z,23.60
2018-06-29T20:41:47.922Z,23.50
2018-06-29T20:44:17.180Z,23.40
2018-06-29T20:46:46.394Z,23.30
2018-06-29T20:51:44.322Z,23.20
2018-06-29T20:54:13.537Z,23.20
2018-06-29T20:56:42.780Z,23.20
2018-06-29T20:59:12.014Z,23.20
2018-06-29T21:01:41.154Z,23.10
2018-06-29T21:04:10.313Z,23.10
2018-06-29T21:06:39.465Z,23.10
2018-06-29T21:09:09.977Z,23.10
2018-06-29T21:11:39.235Z,23.00
2018-06-29T21:14:08.468Z,23.00
2018-06-29T21:16:37.626Z,23.00
2018-06-29T21:19:06.966Z,23.00
2018-06-29T21:21:36.161Z,23.00
2018-06-29T21:24:05.350Z,23.00
2018-06-29T21:26:34.576Z,23.00
2018-06-29T21:29:03.789Z,23.00
2018-06-29T21:31:33.738Z,22.90
2018-06-29T21:34:03.056Z,22.90
2018-06-29T21:36:32.233Z,22.80
2018-06-29T21:39:01.466Z,22.80
2018-06-29T21:41:30.700Z,22.70
2018-06-29T21:43:59.895Z,22.60
2018-06-29T21:46:29.169Z,22.60
2018-06-29T21:48:58.375Z,22.60
2018-06-29T21:51:27.676Z,22.60
2018-06-29T21:56:26.522Z,22.50
2018-06-29T21:58:56.222Z,22.50
2018-06-29T22:01:25.415Z,22.40
2018-06-29T22:03:54.588Z,22.40
2018-06-29T22:06:23.863Z,22.30
2018-06-29T22:08:52.992Z,22.30
2018-06-29T22:13:50.952Z,22.20
2018-06-29T22:16:20.211Z,22.10
2018-06-29T22:18:49.391Z,22.10
2018-06-29T22:21:18.615Z,22.00
2018-06-29T22:23:47.823Z,22.00
2018-06-29T22:26:17.098Z,22.10
2018-06-29T22:28:46.916Z,22.10
2018-06-29T22:31:16.145Z,22.00
2018-06-29T22:33:45.328Z,22.00
2018-06-29T22:36:14.586Z,22.10
2018-06-29T22:38:44.038Z,22.00
2018-06-29T22:41:13.208Z,22.00
2018-06-29T22:43:42.389Z,22.00
2018-06-29T22:46:11.679Z,22.10
2018-06-29T22:48:40.855Z,22.00
2018-06-29T22:51:10.044Z,21.90
2018-06-29T22:53:39.183Z,22.00
2018-06-29T22:56:08.376Z,21.90
2018-06-29T22:58:38.669Z,21.90
2018-06-29T23:01:07.876Z,21.90
2018-06-29T23:03:42.345Z,21.90
2018-06-29T23:06:11.515Z,22.00
2018-06-29T23:08:40.726Z,22.00
2018-06-29T23:11:09.924Z,22.10
2018-06-29T23:13:39.183Z,22.10
2018-06-29T23:16:08.421Z,22.00
2018-06-29T23:18:37.626Z,21.90
2018-06-29T23:21:06.779Z,22.00
2018-06-29T23:23:35.988Z,22.00
2018-06-29T23:26:05.640Z,22.00
2018-06-29T23:28:34.939Z,22.10
2018-06-29T23:31:04.141Z,22.10
2018-06-29T23:33:33.420Z,22.10
2018-06-29T23:36:02.610Z,22.00
2018-06-29T23:38:31.767Z,22.00
2018-06-29T23:41:01.041Z,21.80
2018-06-29T23:43:30.270Z,21.50
2018-06-29T23:45:59.441Z,21.60
2018-06-29T23:48:28.583Z,21.70
2018-06-29T23:50:57.772Z,21.60
2018-06-29T23:53:26.990Z,21.70
2018-06-29T23:58:24.959Z,21.70
